createdAt,value
2019-03-29T00:00:26.704Z,14.00
2019-03-29T00:02:58.013Z,14.00
2019-03-29T00:05:29.267Z,13.90
2019-03-29T00:08:00.417Z,13.90
2019-03-29T00:10:31.754Z,14.00
2019-03-29T00:13:02.960Z,14.00
2019-03-29T00:15:35.212Z,14.00
2019-03-29T00:18:14.576Z,14.00
2019-03-29T00:20:47.155Z,14.00
2019-03-29T00:23:18.399Z,13.90
2019-03-29T00:25:51.491Z,13.90
2019-03-29T00:28:22.623Z,13.80
2019-03-29T00:30:53.810Z,13.90
2019-03-29T00:33:25.024Z,13.80
2019-03-29T00:35:56.436Z,13.90
2019-03-29T00:38:27.614Z,14.00
2019-03-29T00:40:59.004Z,14.00
2019-03-29T00:43:30.406Z,13.90
2019-03-29T00:46:03.540Z,13.90
2019-03-29T00:48:35.739Z,13.90
2019-03-29T00:51:07.386Z,14.60
2019-03-29T00:53:38.512Z,13.80
2019-03-29T00:56:09.997Z,13.90
2019-03-29T00:58:41.199Z,13.90
2019-03-29T01:01:12.620Z,13.80
2019-03-29T01:03:43.754Z,13.70
2019-03-29T01:06:15.048Z,13.70
2019-03-29T01:08:48.444Z,13.70
2019-03-29T01:11:19.690Z,13.70
2019-03-29T01:13:51.682Z,13.60
2019-03-29T01:16:22.945Z,13.60
2019-03-29T01:18:55.440Z,13.60
2019-03-29T01:21:26.634Z,13.50
2019-03-29T01:23:57.870Z,13.50
2019-03-29T01:26:29.106Z,13.40
2019-03-29T01:29:00.316Z,13.30
2019-03-29T01:31:31.622Z,13.30
2019-03-29T01:34:03.189Z,13.30
2019-03-29T01:36:34.368Z,13.20
2019-03-29T01:39:06.966Z,13.20
2019-03-29T01:41:46.439Z,13.30
2019-03-29T01:44:17.969Z,13.30
2019-03-29T01:46:49.174Z,13.30
2019-03-29T01:49:20.499Z,13.30
2019-03-29T01:51:55.364Z,13.20
2019-03-29T01:54:26.594Z,13.40
2019-03-29T01:56:57.792Z,13.50
2019-03-29T01:59:29.060Z,13.60
2019-03-29T02:02:01.090Z,13.50
2019-03-29T02:04:34.297Z,13.50
2019-03-29T02:07:06.218Z,13.60
2019-03-29T02:09:38.226Z,13.50
2019-03-29T02:12:09.504Z,13.60
2019-03-29T02:14:40.702Z,13.60
2019-03-29T02:17:12.429Z,13.50
2019-03-29T02:19:43.639Z,13.50
2019-03-29T02:22:14.863Z,13.60
2019-03-29T02:24:46.152Z,13.60
2019-03-29T02:27:17.325Z,13.50
2019-03-29T02:29:48.559Z,13.50
2019-03-29T02:32:20.284Z,13.50
2019-03-29T02:34:51.955Z,13.60
2019-03-29T02:37:23.234Z,13.60
2019-03-29T02:39:55.192Z,13.60
2019-03-29T02:42:26.648Z,13.60
2019-03-29T02:44:57.792Z,13.70
2019-03-29T02:47:29.566Z,13.60
2019-03-29T02:50:00.764Z,13.60
2019-03-29T02:52:32.059Z,13.50
2019-03-29T02:55:03.197Z,13.60
2019-03-29T02:57:34.622Z,13.50
2019-03-29T03:00:08.044Z,13.60
2019-03-29T03:02:39.368Z,13.60
2019-03-29T03:05:11.398Z,13.60
2019-03-29T03:07:42.752Z,13.50
2019-03-29T03:10:14.248Z,13.50
2019-03-29T03:12:45.516Z,13.50
2019-03-29T03:15:18.191Z,13.60
2019-03-29T03:17:50.422Z,13.50
2019-03-29T03:20:22.499Z,13.40
2019-03-29T03:22:53.709Z,13.40
2019-03-29T03:25:24.897Z,13.40
2019-03-29T03:27:57.237Z,13.30
2019-03-29T03:30:28.503Z,13.40
2019-03-29T03:32:59.771Z,13.30
2019-03-29T03:35:30.913Z,13.50
2019-03-29T03:38:02.151Z,13.40
2019-03-29T03:40:33.391Z,13.50
2019-03-29T03:43:04.653Z,13.50
2019-03-29T03:45:35.786Z,13.40
2019-03-29T03:48:06.967Z,13.50
2019-03-29T03:50:42.835Z,13.40
2019-03-29T03:53:14.434Z,13.50
2019-03-29T03:55:46.700Z,13.40
2019-03-29T03:58:19.698Z,13.00
2019-03-29T04:00:56.481Z,13.40
2019-03-29T04:03:28.205Z,13.50
2019-03-29T04:05:59.582Z,13.50
2019-03-29T04:08:30.848Z,13.50
2019-03-29T04:11:02.019Z,13.50
2019-03-29T04:13:33.360Z,13.50
2019-03-29T04:16:04.839Z,13.50
2019-03-29T04:18:36.171Z,13.30
2019-03-29T04:21:07.654Z,13.20
2019-03-29T04:23:38.935Z,13.10
2019-03-29T04:26:10.064Z,13.20
2019-03-29T04:28:42.357Z,13.30
2019-03-29T04:31:13.538Z,13.30
2019-03-29T04:33:45.051Z,13.20
2019-03-29T04:36:16.395Z,13.20
2019-03-29T04:38:48.052Z,13.20
2019-03-29T04:41:19.302Z,13.10
2019-03-29T04:43:50.591Z,13.00
2019-03-29T04:46:21.785Z,12.90
2019-03-29T04:48:52.932Z,12.90
2019-03-29T04:51:24.201Z,13.00
2019-03-29T04:53:59.561Z,13.00
2019-03-29T04:56:30.845Z,13.00
2019-03-29T04:59:02.028Z,12.90
2019-03-29T05:01:33.166Z,12.80
2019-03-29T05:04:05.423Z,12.60
2019-03-29T05:06:36.654Z,12.40
2019-03-29T05:09:08.657Z,12.40
2019-03-29T05:11:45.179Z,12.30
2019-03-29T05:14:16.493Z,12.20
2019-03-29T05:16:47.811Z,12.10
2019-03-29T05:19:18.958Z,12.10
2019-03-29T05:21:50.221Z,12.00
2019-03-29T05:24:21.627Z,12.00
2019-03-29T05:26:52.914Z,12.00
2019-03-29T05:29:24.144Z,11.90
2019-03-29T05:31:55.345Z,11.80
2019-03-29T05:34:26.780Z,11.80
2019-03-29T05:36:58.572Z,11.90
2019-03-29T05:39:29.913Z,11.90
2019-03-29T05:42:01.656Z,12.00
2019-03-29T05:44:32.874Z,11.90
2019-03-29T05:47:04.113Z,12.00
2019-03-29T05:49:35.541Z,12.10
2019-03-29T05:52:06.881Z,12.20
2019-03-29T05:54:38.128Z,12.20
2019-03-29T05:57:09.319Z,12.30
2019-03-29T05:59:41.486Z,12.30
2019-03-29T06:02:12.686Z,12.30
2019-03-29T06:04:44.121Z,12.30
2019-03-29T06:07:15.289Z,12.30
2019-03-29T06:09:46.625Z,12.50
2019-03-29T06:12:18.087Z,12.60
2019-03-29T06:14:49.368Z,12.60
2019-03-29T06:17:20.564Z,12.70
2019-03-29T06:19:52.762Z,12.80
2019-03-29T06:22:24.086Z,12.80
2019-03-29T06:24:55.512Z,12.70
2019-03-29T06:27:27.035Z,12.70
2019-03-29T06:29:58.463Z,12.70
2019-03-29T06:32:29.629Z,12.60
2019-03-29T06:35:01.077Z,12.60
2019-03-29T06:37:35.546Z,12.70
2019-03-29T06:40:10.131Z,12.70
2019-03-29T06:42:41.512Z,12.80
2019-03-29T06:45:12.955Z,12.90
2019-03-29T06:47:44.167Z,13.00
2019-03-29T06:50:15.493Z,13.10
2019-03-29T06:52:46.700Z,13.30
2019-03-29T06:55:18.033Z,13.40
2019-03-29T06:57:50.495Z,13.50
2019-03-29T07:00:21.895Z,13.50
2019-03-29T07:02:53.289Z,13.60
2019-03-29T07:05:24.739Z,13.70
2019-03-29T07:07:56.189Z,13.70
2019-03-29T07:10:27.573Z,13.70
2019-03-29T07:12:59.474Z,13.90
2019-03-29T07:15:30.919Z,14.10
2019-03-29T07:18:04.234Z,14.80
2019-03-29T07:20:35.718Z,16.20
2019-03-29T07:23:06.972Z,17.60
2019-03-29T07:25:38.223Z,19.00
2019-03-29T07:28:09.771Z,20.00
2019-03-29T07:30:41.079Z,20.30
2019-03-29T07:33:12.338Z,20.20
2019-03-29T07:35:43.679Z,20.30
2019-03-29T07:38:15.312Z,20.90
2019-03-29T07:40:46.822Z,20.70
2019-03-29T07:43:18.030Z,21.60
2019-03-29T07:45:49.634Z,22.50
2019-03-29T07:48:21.247Z,22.30
2019-03-29T07:50:53.731Z,22.40
2019-03-29T07:53:26.104Z,22.20
2019-03-29T07:56:00.721Z,22.50
2019-03-29T07:58:31.948Z,22.60
2019-03-29T08:01:04.121Z,21.70
2019-03-29T08:03:36.506Z,21.70
2019-03-29T08:06:07.807Z,22.20
2019-03-29T08:08:39.018Z,22.10
2019-03-29T08:11:10.365Z,23.10
2019-03-29T08:13:41.580Z,23.30
2019-03-29T08:16:12.930Z,23.20
2019-03-29T08:18:44.106Z,23.60
2019-03-29T08:21:16.061Z,23.90
2019-03-29T08:23:47.450Z,24.00
2019-03-29T08:26:18.726Z,24.10
2019-03-29T08:28:49.903Z,23.70
2019-03-29T08:31:21.124Z,23.40
2019-03-29T08:33:54.216Z,20.90
2019-03-29T08:36:25.731Z,21.10
2019-03-29T08:38:56.967Z,20.30
2019-03-29T08:41:28.354Z,19.40
2019-03-29T08:43:59.826Z,20.10
2019-03-29T08:46:31.131Z,18.50
2019-03-29T08:49:02.378Z,18.10
2019-03-29T08:51:33.785Z,17.90
2019-03-29T08:54:05.142Z,17.60
2019-03-29T08:56:36.879Z,17.40
2019-03-29T08:59:08.188Z,17.50
2019-03-29T09:01:39.482Z,17.50
2019-03-29T09:04:10.818Z,17.50
2019-03-29T09:06:53.129Z,17.60
2019-03-29T09:09:15.940Z,17.30
2019-03-29T09:11:47.131Z,17.10
2019-03-29T09:14:18.584Z,17.30
2019-03-29T09:16:49.960Z,17.50
2019-03-29T09:19:21.228Z,17.70
2019-03-29T09:21:53.672Z,17.90
2019-03-29T09:24:28.586Z,17.90
2019-03-29T09:27:00.394Z,17.50
2019-03-29T09:29:31.700Z,17.60
2019-03-29T09:32:03.021Z,17.50
2019-03-29T09:34:35.523Z,17.80
2019-03-29T09:37:07.410Z,17.90
2019-03-29T09:39:38.671Z,17.80
2019-03-29T09:42:10.147Z,17.90
2019-03-29T09:44:41.460Z,17.50
2019-03-29T09:47:13.116Z,17.60
2019-03-29T09:49:44.283Z,17.50
2019-03-29T09:52:15.628Z,17.70
2019-03-29T09:54:47.285Z,17.50
2019-03-29T09:57:36.849Z,17.40
2019-03-29T09:59:57.550Z,17.70
2019-03-29T10:02:28.981Z,17.60
2019-03-29T10:05:01.228Z,17.40
2019-03-29T10:07:32.631Z,17.20
2019-03-29T10:10:03.904Z,17.20
2019-03-29T10:12:43.489Z,17.40
2019-03-29T10:15:11.272Z,17.40
2019-03-29T10:17:42.706Z,17.20
2019-03-29T10:20:14.064Z,17.20
2019-03-29T10:22:45.404Z,17.10
2019-03-29T10:25:19.736Z,17.10
2019-03-29T10:27:52.495Z,16.90
2019-03-29T10:30:38.712Z,17.10
2019-03-29T10:33:10.030Z,17.20
2019-03-29T10:35:51.610Z,17.30
2019-03-29T10:38:17.967Z,17.40
2019-03-29T10:40:47.581Z,17.50
2019-03-29T10:43:18.924Z,17.10
2019-03-29T10:45:50.079Z,17.20
2019-03-29T10:48:22.038Z,17.30
2019-03-29T10:50:54.024Z,17.00
2019-03-29T10:53:28.566Z,17.00
2019-03-29T10:55:58.340Z,17.00
2019-03-29T10:58:29.849Z,16.60
2019-03-29T11:01:01.336Z,16.40
2019-03-29T11:03:32.542Z,16.60
2019-03-29T11:06:03.963Z,16.60
2019-03-29T11:08:35.172Z,16.60
2019-03-29T11:11:09.043Z,16.70
2019-03-29T11:13:41.210Z,16.90
2019-03-29T11:16:13.574Z,14.90
2019-03-29T11:18:45.923Z,16.60
2019-03-29T11:21:17.304Z,16.80
2019-03-29T11:23:48.629Z,18.30
2019-03-29T11:26:20.236Z,16.80
2019-03-29T11:28:51.539Z,17.00
2019-03-29T11:31:25.469Z,17.00
2019-03-29T11:33:55.983Z,16.90
2019-03-29T11:36:27.363Z,16.80
2019-03-29T11:38:58.720Z,17.20
2019-03-29T11:41:29.954Z,17.30
2019-03-29T11:44:02.246Z,17.30
2019-03-29T11:46:33.679Z,18.30
2019-03-29T11:49:06.471Z,20.30
2019-03-29T11:51:37.699Z,21.70
2019-03-29T11:54:09.292Z,22.60
2019-03-29T11:56:40.495Z,23.60
2019-03-29T11:59:12.109Z,24.20
2019-03-29T12:01:43.319Z,24.70
2019-03-29T12:04:14.903Z,25.00
2019-03-29T12:06:46.315Z,24.70
2019-03-29T12:09:17.578Z,24.70
2019-03-29T12:11:48.901Z,24.80
2019-03-29T12:14:22.546Z,25.20
2019-03-29T12:16:54.264Z,25.30
2019-03-29T12:19:25.682Z,25.00
2019-03-29T12:21:56.980Z,24.40
2019-03-29T12:24:28.390Z,24.20
2019-03-29T12:26:59.737Z,24.00
2019-03-29T12:29:31.250Z,24.30
2019-03-29T12:32:03.641Z,24.70
2019-03-29T12:34:36.816Z,25.50
2019-03-29T12:37:08.576Z,25.80
2019-03-29T12:39:39.944Z,25.60
2019-03-29T12:42:12.733Z,25.40
2019-03-29T12:44:44.007Z,26.00
2019-03-29T12:47:15.342Z,26.10
2019-03-29T12:49:46.812Z,25.10
2019-03-29T12:52:18.014Z,24.90
2019-03-29T12:54:49.275Z,24.60
2019-03-29T12:57:20.677Z,24.10
2019-03-29T12:59:52.100Z,24.20
2019-03-29T13:02:23.643Z,24.70
2019-03-29T13:04:55.026Z,24.00
2019-03-29T13:07:26.191Z,24.20
2019-03-29T13:09:57.503Z,24.20
2019-03-29T13:12:28.895Z,23.80
2019-03-29T13:15:00.359Z,23.50
2019-03-29T13:17:38.273Z,22.90
2019-03-29T13:20:09.764Z,22.30
2019-03-29T13:22:41.060Z,21.00
2019-03-29T13:25:12.839Z,20.20
2019-03-29T13:27:44.050Z,19.90
2019-03-29T13:30:17.339Z,19.80
2019-03-29T13:32:49.771Z,20.50
2019-03-29T13:35:20.950Z,21.20
2019-03-29T13:37:52.210Z,20.60
2019-03-29T13:40:23.811Z,19.80
2019-03-29T13:42:55.148Z,20.10
2019-03-29T13:45:28.027Z,20.50
2019-03-29T13:47:59.559Z,21.40
2019-03-29T13:50:30.992Z,21.90
2019-03-29T13:53:02.393Z,21.70
2019-03-29T13:55:33.563Z,22.50
2019-03-29T13:58:04.908Z,22.40
2019-03-29T14:00:40.225Z,22.00
2019-03-29T14:03:11.537Z,20.10
2019-03-29T14:05:42.885Z,19.10
2019-03-29T14:08:14.233Z,18.50
2019-03-29T14:10:45.427Z,18.00
2019-03-29T14:13:19.524Z,17.50
2019-03-29T14:15:49.759Z,17.40
2019-03-29T14:18:21.302Z,17.30
2019-03-29T14:20:52.955Z,17.40
2019-03-29T14:23:24.315Z,17.50
2019-03-29T14:25:55.749Z,17.20
2019-03-29T14:28:27.160Z,17.20
2019-03-29T14:30:58.785Z,17.00
2019-03-29T14:33:30.240Z,16.80
2019-03-29T14:36:01.589Z,17.00
2019-03-29T14:38:32.879Z,17.10
2019-03-29T14:41:08.897Z,17.00
2019-03-29T14:43:42.264Z,16.90
2019-03-29T14:46:13.622Z,16.80
2019-03-29T14:48:45.256Z,16.90
2019-03-29T14:51:16.592Z,16.80
2019-03-29T14:53:48.119Z,16.80
2019-03-29T14:56:19.495Z,16.90
2019-03-29T14:58:50.812Z,16.80
2019-03-29T15:01:22.277Z,16.90
2019-03-29T15:03:53.672Z,16.90
2019-03-29T15:06:25.479Z,16.60
2019-03-29T15:08:56.814Z,16.70
2019-03-29T15:11:28.122Z,16.70
2019-03-29T15:13:59.486Z,16.80
2019-03-29T15:16:30.686Z,16.80
2019-03-29T15:19:02.096Z,16.60
2019-03-29T15:21:33.341Z,16.30
2019-03-29T15:24:04.560Z,16.30
2019-03-29T15:26:36.112Z,16.20
2019-03-29T15:29:07.414Z,16.20
2019-03-29T15:31:38.721Z,16.30
2019-03-29T15:35:08.360Z,16.40
2019-03-29T15:37:39.893Z,16.20
2019-03-29T15:40:12.623Z,16.00
2019-03-29T15:42:44.236Z,16.10
2019-03-29T15:45:20.563Z,16.10
2019-03-29T15:47:50.081Z,16.00
2019-03-29T15:50:23.299Z,15.90
2019-03-29T15:52:55.271Z,15.90
2019-03-29T15:55:26.652Z,15.90
2019-03-29T15:57:58.214Z,15.90
2019-03-29T16:00:29.523Z,15.80
2019-03-29T16:03:01.136Z,15.70
2019-03-29T16:05:32.342Z,15.60
2019-03-29T16:08:03.632Z,15.60
2019-03-29T16:10:35.248Z,15.40
2019-03-29T16:13:06.773Z,15.40
2019-03-29T16:15:38.472Z,15.40
2019-03-29T16:18:10.021Z,15.40
2019-03-29T16:20:41.256Z,15.60
2019-03-29T16:23:12.645Z,15.60
2019-03-29T16:25:44.034Z,15.50
2019-03-29T16:28:15.298Z,15.50
2019-03-29T16:30:46.687Z,15.50
2019-03-29T16:33:17.978Z,15.50
2019-03-29T16:35:49.239Z,15.60
2019-03-29T16:38:20.549Z,15.50
2019-03-29T16:40:51.854Z,15.30
2019-03-29T16:43:23.193Z,15.30
2019-03-29T16:45:55.282Z,15.20
2019-03-29T16:48:33.981Z,15.20
2019-03-29T16:51:05.429Z,15.20
2019-03-29T16:53:39.791Z,15.20
2019-03-29T16:56:12.197Z,15.20
2019-03-29T16:58:44.027Z,15.10
2019-03-29T17:01:15.379Z,15.10
2019-03-29T17:03:50.437Z,15.10
2019-03-29T17:06:21.775Z,15.00
2019-03-29T17:08:53.322Z,15.10
2019-03-29T17:11:24.511Z,13.60
2019-03-29T17:13:57.010Z,14.90
2019-03-29T17:16:30.674Z,14.90
2019-03-29T17:19:03.382Z,14.90
2019-03-29T17:21:34.817Z,15.00
2019-03-29T17:24:06.824Z,14.90
2019-03-29T17:26:38.263Z,14.90
2019-03-29T17:29:10.128Z,14.90
2019-03-29T17:31:41.479Z,14.90
2019-03-29T17:34:12.916Z,14.90
2019-03-29T17:36:44.236Z,14.80
2019-03-29T17:39:15.666Z,14.80
2019-03-29T17:41:47.181Z,14.70
2019-03-29T17:44:18.637Z,14.80
2019-03-29T17:46:49.944Z,14.90
2019-03-29T17:49:21.490Z,14.90
2019-03-29T17:51:53.921Z,14.90
2019-03-29T17:54:25.402Z,14.90
2019-03-29T17:56:56.748Z,14.90
2019-03-29T17:59:28.511Z,14.80
2019-03-29T18:02:09.276Z,14.80
2019-03-29T18:04:32.838Z,14.80
2019-03-29T18:07:04.219Z,14.70
2019-03-29T18:09:35.921Z,14.60
2019-03-29T18:12:07.500Z,14.70
2019-03-29T18:14:40.324Z,14.60
2019-03-29T18:17:11.492Z,14.60
2019-03-29T18:19:43.213Z,14.60
2019-03-29T18:22:14.563Z,14.50
2019-03-29T18:24:45.818Z,14.50
2019-03-29T18:27:17.425Z,14.40
2019-03-29T18:29:48.777Z,14.40
2019-03-29T18:32:21.178Z,14.30
2019-03-29T18:34:53.452Z,14.40
2019-03-29T18:37:24.978Z,14.40
2019-03-29T18:39:57.174Z,14.40
2019-03-29T18:42:28.656Z,14.40
2019-03-29T18:45:00.023Z,14.30
2019-03-29T18:47:31.426Z,14.30
2019-03-29T18:50:02.804Z,14.30
2019-03-29T18:52:34.355Z,14.30
2019-03-29T18:55:06.376Z,14.20
2019-03-29T18:57:37.848Z,14.30
2019-03-29T19:00:10.067Z,14.30
2019-03-29T19:02:42.148Z,14.30
2019-03-29T19:05:24.172Z,14.20
2019-03-29T19:07:56.224Z,14.30
2019-03-29T19:10:27.589Z,14.30
2019-03-29T19:12:59.346Z,14.30
2019-03-29T19:15:36.866Z,12.50
2019-03-29T19:18:08.628Z,14.10
2019-03-29T19:20:40.099Z,14.20
2019-03-29T19:23:12.060Z,14.30
2019-03-29T19:25:43.522Z,14.20
2019-03-29T19:28:15.389Z,14.10
2019-03-29T19:30:47.522Z,14.10
2019-03-29T19:33:20.202Z,14.10
2019-03-29T19:35:51.631Z,14.10
2019-03-29T19:38:22.848Z,14.00
2019-03-29T19:40:54.303Z,14.00
2019-03-29T19:43:26.640Z,14.10
2019-03-29T19:45:57.803Z,14.20
2019-03-29T19:48:29.137Z,14.20
2019-03-29T19:51:00.405Z,14.20
2019-03-29T19:53:34.329Z,14.20
2019-03-29T19:56:04.889Z,14.10
2019-03-29T19:58:36.363Z,14.10
2019-03-29T20:01:07.656Z,14.10
2019-03-29T20:03:39.137Z,14.10
2019-03-29T20:06:14.374Z,14.10
2019-03-29T20:08:45.676Z,14.10
2019-03-29T20:11:16.983Z,14.10
2019-03-29T20:13:50.398Z,14.10
2019-03-29T20:16:22.006Z,14.10
2019-03-29T20:18:54.001Z,14.00
2019-03-29T20:21:34.656Z,14.00
2019-03-29T20:24:06.232Z,14.00
2019-03-29T20:26:37.951Z,14.10
2019-03-29T20:29:09.132Z,14.00
2019-03-29T20:31:40.637Z,14.00
2019-03-29T20:34:11.943Z,14.00
2019-03-29T20:36:43.177Z,13.90
2019-03-29T20:39:14.563Z,13.90
2019-03-29T20:41:46.217Z,13.90
2019-03-29T20:44:17.675Z,13.90
2019-03-29T20:46:48.995Z,14.00
2019-03-29T20:49:20.324Z,13.90
2019-03-29T20:51:51.746Z,13.80
2019-03-29T20:54:22.951Z,13.80
2019-03-29T20:56:54.507Z,13.80
2019-03-29T20:59:25.755Z,13.90
2019-03-29T21:01:57.204Z,14.00
2019-03-29T21:04:29.474Z,13.90
2019-03-29T21:07:01.200Z,13.90
2019-03-29T21:09:32.567Z,13.90
2019-03-29T21:12:03.820Z,13.80
2019-03-29T21:14:35.157Z,15.20
2019-03-29T21:17:06.395Z,13.90
2019-03-29T21:19:38.682Z,13.80
2019-03-29T21:22:10.055Z,13.80
2019-03-29T21:24:41.448Z,13.70
2019-03-29T21:27:12.834Z,13.70
2019-03-29T21:29:44.220Z,13.70
2019-03-29T21:32:15.766Z,13.80
2019-03-29T21:34:47.248Z,13.80
2019-03-29T21:37:19.199Z,13.70
2019-03-29T21:39:50.663Z,13.70
2019-03-29T21:42:22.166Z,13.80
2019-03-29T21:44:53.703Z,13.80
2019-03-29T21:47:25.115Z,13.80
2019-03-29T21:49:56.604Z,13.70
2019-03-29T21:52:28.081Z,13.80
2019-03-29T21:54:59.773Z,13.80
2019-03-29T21:57:31.678Z,13.80
2019-03-29T22:00:02.833Z,13.80
2019-03-29T22:02:34.510Z,13.80
2019-03-29T22:05:06.380Z,13.80
2019-03-29T22:07:44.520Z,13.70
2019-03-29T22:10:15.871Z,13.80
2019-03-29T22:12:47.257Z,13.80
2019-03-29T22:15:18.641Z,13.80
2019-03-29T22:17:49.966Z,13.80
2019-03-29T22:20:21.255Z,13.90
2019-03-29T22:22:52.690Z,13.90
2019-03-29T22:25:23.968Z,13.80
2019-03-29T22:27:55.396Z,13.80
2019-03-29T22:30:26.606Z,13.80
2019-03-29T22:32:57.913Z,13.80
2019-03-29T22:35:29.216Z,13.70
2019-03-29T22:38:00.465Z,13.70
2019-03-29T22:40:33.887Z,13.70
2019-03-29T22:43:07.421Z,13.60
2019-03-29T22:45:38.021Z,13.60
2019-03-29T22:48:09.243Z,13.80
2019-03-29T22:50:41.306Z,13.80
2019-03-29T22:53:12.620Z,13.80
2019-03-29T22:55:43.901Z,13.80
2019-03-29T22:58:15.175Z,13.70
2019-03-29T23:00:51.406Z,13.60
2019-03-29T23:03:23.171Z,13.60
2019-03-29T23:05:54.529Z,13.60
2019-03-29T23:08:29.023Z,13.60
2019-03-29T23:11:01.342Z,13.60
2019-03-29T23:13:34.429Z,13.60
2019-03-29T23:16:05.650Z,13.60
2019-03-29T23:18:36.927Z,13.60
2019-03-29T23:21:08.146Z,13.60
2019-03-29T23:23:39.651Z,13.60
2019-03-29T23:26:10.956Z,13.60
2019-03-29T23:28:42.251Z,13.60
2019-03-29T23:31:13.858Z,13.60
2019-03-29T23:33:45.226Z,13.60
2019-03-29T23:36:16.594Z,13.70
2019-03-29T23:38:47.911Z,13.70
2019-03-29T23:41:19.300Z,13.60
2019-03-29T23:43:50.866Z,13.60
2019-03-29T23:46:22.231Z,13.60
2019-03-29T23:48:53.660Z,13.60
2019-03-29T23:51:26.301Z,13.70
2019-03-29T23:53:58.492Z,13.60
2019-03-29T23:56:29.788Z,13.70
2019-03-29T23:59:01.148Z,13.80
